Time;durP1;ratioP1;P1;durP2;ratioP2;P2;SDS_P1;SDS_P2;PMS_P1;PMS_P2;Temp;Humidity;BMP_temperature;BMP_pressure;BME280_temperature;BME280_humidity;BME280_pressure;Samples;Min_cycle;Max_cycle;Signal;HPM_P1;HPM_P2
2022/01/06 00:02:16;;;;;;;;;;;;;;;8.31;62.64;100440.22;4955896;28;6855;-71
2022/01/06 00:04:42;;;;;;;;;;;;;;;8.32;61.84;100444.53;4957222;28;6890;-71
2022/01/06 00:07:08;;;;;;;;;;;;;;;8.35;62.75;100448.94;4954594;28;6796;-71
2022/01/06 00:09:34;;;;;;;;;;;;;;;8.36;62.31;100453.25;4953762;28;7986;-71
2022/01/06 00:11:59;;;;;;;;;;;;;;;8.37;61.38;100441.38;4954541;28;7221;-72
2022/01/06 00:14:53;;;;;;;;;;;;;;;8.38;61.79;100448.25;4949899;28;6902;-72
2022/01/06 00:25:36;;;;;;;;;;;;;;;8.47;61.41;100464.97;4958887;28;7166;-71
2022/01/06 00:28:02;;;;;;;;;;;;;;;8.52;62.47;100466.94;4951508;28;6996;-71
2022/01/06 00:30:28;;;;;;;;;;;;;;;8.55;62.16;100478.22;4942002;28;7003;-72
2022/01/06 00:32:54;;;;;;;;;;;;;;;8.59;62.04;100474.16;4956093;28;6924;-72
2022/01/06 00:35:20;;;;;;;;;;;;;;;8.61;61.94;100475.13;4954667;28;7146;-71
2022/01/06 00:37:46;;;;;;;;;;;;;;;8.64;61.62;100480.41;4954275;28;6875;-71
2022/01/06 00:40:12;;;;;;;;;;;;;;;8.65;61.71;100483.88;4954428;28;7029;-71
2022/01/06 00:42:39;;;;;;;;;;;;;;;8.66;62.25;100483.06;4955746;28;7183;-71
2022/01/06 00:45:05;;;;;;;;;;;;;;;8.67;61.20;100483.13;4954072;28;6808;-71
2022/01/06 00:47:31;;;;;;;;;;;;;;;8.68;61.65;100489.13;4958311;28;7767;-71
2022/01/06 00:49:57;;;;;;;;;;;;;;;8.67;61.20;100487.38;4971368;28;7197;-71
2022/01/06 00:52:22;;;;;;;;;;;;;;;8.63;60.20;100477.75;4958726;28;7680;-71
2022/01/06 00:54:48;;;;;;;;;;;;;;;8.57;60.97;100486.84;4956867;28;8307;-71
2022/01/06 00:57:14;;;;;;;;;;;;;;;8.48;61.28;100478.63;4957267;28;7003;-71
2022/01/06 00:59:39;;;;;;;;;;;;;;;8.38;61.30;100486.56;4956779;28;7225;-71
2022/01/06 01:02:05;;;;;;;;;;;;;;;8.31;60.69;100487.88;4960176;28;6784;-71
2022/01/06 01:04:31;;;;;;;;;;;;;;;8.23;60.59;100489.09;4959089;28;7243;-71
2022/01/06 01:06:57;;;;;;;;;;;;;;;8.15;61.28;100496.28;4975368;28;6943;-71
2022/01/06 01:09:22;;;;;;;;;;;;;;;8.08;61.33;100500.13;4955672;28;6884;-71
2022/01/06 01:11:48;;;;;;;;;;;;;;;8.04;60.94;100504.19;4961485;28;7313;-71
2022/01/06 01:14:19;;;;;;;;;;;;;;;8.02;61.44;100503.22;4955305;28;7015;-71
2022/01/06 01:17:04;;;;;;;;;;;;;;;8.00;61.15;100502.25;4958049;28;6816;-72
2022/01/06 01:19:31;;;;;;;;;;;;;;;8.02;60.76;100510.00;4961650;28;7885;-71
2022/01/06 01:21:58;;;;;;;;;;;;;;;8.02;62.21;100510.00;4958299;28;6823;-71
2022/01/06 01:24:24;;;;;;;;;;;;;;;8.02;62.08;100515.13;4954631;28;7193;-71
2022/01/06 01:26:50;;;;;;;;;;;;;;;8.01;60.78;100519.31;4958374;28;6792;-71
2022/01/06 01:29:18;;;;;;;;;;;;;;;8.02;61.76;100525.31;4957294;28;7214;-71
2022/01/06 01:31:50;;;;;;;;;;;;;;;8.01;62.07;100520.97;4960351;28;7967;-71
2022/01/06 01:34:23;;;;;;;;;;;;;;;7.98;60.46;100524.25;4964308;28;7199;-71
2022/01/06 01:36:49;;;;;;;;;;;;;;;7.95;60.68;100520.63;4942474;28;6816;-71
2022/01/06 01:39:14;;;;;;;;;;;;;;;7.89;60.73;100524.56;4956956;28;7003;-71
2022/01/06 01:41:41;;;;;;;;;;;;;;;7.82;60.72;100526.66;4954746;28;7396;-71
2022/01/06 01:44:12;;;;;;;;;;;;;;;7.74;61.28;100528.75;4945159;28;7285;-71
2022/01/06 01:46:45;;;;;;;;;;;;;;;7.67;60.94;100531.69;4957452;28;6896;-71
2022/01/06 01:51:41;;;;;;;;;;;;;;;7.55;61.11;100535.25;4942090;28;7328;-71
2022/01/06 01:54:07;;;;;;;;;;;;;;;7.50;60.73;100537.53;4973586;28;6816;-71
2022/01/06 01:56:34;;;;;;;;;;;;;;;7.47;60.70;100539.00;4959198;28;6777;-71
2022/01/06 01:59:00;;;;;;;;;;;;;;;7.41;61.64;100536.94;4956634;28;6800;-71
2022/01/06 02:01:26;;;;;;;;;;;;;;;7.38;61.42;100548.63;4957011;28;6879;-71
2022/01/06 02:03:51;;;;;;;;;;;;;;;7.33;61.79;100544.09;4958553;28;6819;-71
2022/01/06 02:06:18;;;;;;;;;;;;;;;7.29;61.49;100543.78;4958486;28;10620;-71
2022/01/06 02:08:45;;;;;;;;;;;;;;;7.24;61.03;100546.03;4956515;28;7183;-71
2022/01/06 02:11:10;;;;;;;;;;;;;;;7.20;60.92;100544.09;4955744;28;8344;-71
2022/01/06 02:13:49;;;;;;;;;;;;;;;7.14;60.64;100552.25;4958632;28;6950;-71
2022/01/06 02:16:23;;;;;;;;;;;;;;;7.10;60.81;100547.75;4955946;28;6812;-71
2022/01/06 02:18:50;;;;;;;;;;;;;;;7.05;60.94;100557.66;4957877;28;6884;-71
2022/01/06 02:21:16;;;;;;;;;;;;;;;7.03;61.47;100556.63;4958408;28;6800;-71
2022/01/06 02:23:43;;;;;;;;;;;;;;;7.00;60.95;100551.34;4952319;28;7111;-72
2022/01/06 02:26:09;;;;;;;;;;;;;;;6.96;61.48;100544.31;4956941;28;6984;-71
2022/01/06 02:28:36;;;;;;;;;;;;;;;6.92;61.55;100547.41;4957756;28;7639;-71
2022/01/06 02:31:02;;;;;;;;;;;;;;;6.89;61.04;100552.31;4957339;28;6796;-72
2022/01/06 02:33:28;;;;;;;;;;;;;;;6.84;61.31;100552.03;4959541;28;6788;-71
2022/01/06 02:35:54;;;;;;;;;;;;;;;6.80;61.24;100561.13;4950994;28;7332;-71
2022/01/06 02:38:22;;;;;;;;;;;;;;;6.76;61.38;100561.72;4953061;28;6796;-71
2022/01/06 02:40:48;;;;;;;;;;;;;;;6.71;61.41;100563.06;4956882;28;7924;-71
2022/01/06 02:43:18;;;;;;;;;;;;;;;6.68;61.01;100565.41;4957406;28;6960;-72
2022/01/06 02:45:46;;;;;;;;;;;;;;;6.65;61.41;100568.63;4956791;28;7039;-71
2022/01/06 02:48:14;;;;;;;;;;;;;;;6.62;60.93;100565.91;4954253;28;6995;-71
2022/01/06 02:50:49;;;;;;;;;;;;;;;6.60;61.88;100569.13;4953711;28;7889;-71
2022/01/06 02:53:17;;;;;;;;;;;;;;;6.56;61.12;100568.03;4933203;28;7161;-72
2022/01/06 02:55:52;;;;;;;;;;;;;;;6.54;61.37;100569.59;4947380;28;8874;-72
2022/01/06 02:58:18;;;;;;;;;;;;;;;6.51;61.53;100570.25;4941117;28;6824;-71
2022/01/06 03:00:45;;;;;;;;;;;;;;;6.50;61.71;100567.59;4956777;28;6967;-71
2022/01/06 03:03:11;;;;;;;;;;;;;;;6.48;61.53;100562.44;4960223;28;6824;-71
2022/01/06 03:05:36;;;;;;;;;;;;;;;6.47;62.15;100570.84;4959446;28;6808;-71
2022/01/06 03:08:02;;;;;;;;;;;;;;;6.46;61.65;100576.69;4940421;28;6976;-71
2022/01/06 03:10:30;;;;;;;;;;;;;;;6.44;61.97;100575.72;4944154;28;6808;-71
2022/01/06 03:12:56;;;;;;;;;;;;;;;6.44;61.98;100578.25;4959645;28;6924;-71
2022/01/06 03:15:23;;;;;;;;;;;;;;;6.42;61.94;100581.47;4959810;28;6780;-71
2022/01/06 03:17:58;;;;;;;;;;;;;;;6.40;61.94;100581.41;4975558;28;7968;-71
2022/01/06 03:20:29;;;;;;;;;;;;;;;6.38;61.80;100577.88;4959989;28;7222;-71
2022/01/06 03:22:56;;;;;;;;;;;;;;;6.36;61.80;100584.50;4957399;28;6816;-71
2022/01/06 03:25:22;;;;;;;;;;;;;;;6.35;61.81;100582.72;4958079;28;7018;-71
2022/01/06 03:27:49;;;;;;;;;;;;;;;6.35;62.01;100587.81;4959019;28;6956;-71
2022/01/06 03:30:19;;;;;;;;;;;;;;;6.33;62.03;100594.47;4961800;28;7019;-71
2022/01/06 03:32:46;;;;;;;;;;;;;;;6.33;61.98;100597.03;4959185;28;7452;-71
2022/01/06 03:35:17;;;;;;;;;;;;;;;6.32;61.68;100592.72;4963940;28;6963;-71
2022/01/06 03:37:43;;;;;;;;;;;;;;;6.30;61.77;100595.16;4971419;28;6904;-71
2022/01/06 03:40:10;;;;;;;;;;;;;;;6.29;61.83;100598.47;4970518;28;6887;-71
2022/01/06 03:42:36;;;;;;;;;;;;;;;6.30;61.96;100601.91;4944891;28;7209;-71
2022/01/06 03:45:07;;;;;;;;;;;;;;;6.29;62.30;100606.13;4961456;28;6816;-71
2022/01/06 03:47:33;;;;;;;;;;;;;;;6.27;62.31;100601.69;4942137;28;7385;-71
2022/01/06 03:49:58;;;;;;;;;;;;;;;6.25;61.92;100602.47;4956889;28;6852;-71
2022/01/06 03:52:24;;;;;;;;;;;;;;;6.25;61.78;100606.69;4960856;28;6934;-71
2022/01/06 03:54:51;;;;;;;;;;;;;;;6.23;61.63;100611.66;4960065;28;7054;-71
2022/01/06 03:57:17;;;;;;;;;;;;;;;6.23;61.86;100619.31;4961148;28;6800;-71
2022/01/06 03:59:43;;;;;;;;;;;;;;;6.20;61.61;100608.03;4961339;28;6816;-72
2022/01/06 04:02:09;;;;;;;;;;;;;;;6.19;61.72;100617.34;4958153;28;7723;-72
2022/01/06 04:04:34;;;;;;;;;;;;;;;6.18;61.77;100619.78;4953609;28;7307;-72
2022/01/06 04:07:00;;;;;;;;;;;;;;;6.16;61.58;100622.19;4940523;28;7502;-72
2022/01/06 04:09:26;;;;;;;;;;;;;;;6.15;61.81;100625.53;4956470;28;6855;-72
2022/01/06 04:11:51;;;;;;;;;;;;;;;6.16;62.00;100632.38;4958279;28;7216;-72
2022/01/06 04:14:17;;;;;;;;;;;;;;;6.16;62.34;100632.38;4972393;28;6859;-72
2022/01/06 04:16:43;;;;;;;;;;;;;;;6.16;61.86;100629.84;4958578;28;6904;-72
2022/01/06 04:19:09;;;;;;;;;;;;;;;6.16;61.88;100627.28;4954232;28;7229;-72
2022/01/06 04:21:35;;;;;;;;;;;;;;;6.15;62.06;100632.28;4957367;28;6796;-72
2022/01/06 04:24:02;;;;;;;;;;;;;;;6.14;61.98;100633.06;4954546;28;6808;-72
2022/01/06 04:26:28;;;;;;;;;;;;;;;6.12;61.88;100638.03;4940167;28;8739;-72
2022/01/06 04:28:54;;;;;;;;;;;;;;;6.11;62.22;100644.78;4946554;28;7024;-72
2022/01/06 04:31:19;;;;;;;;;;;;;;;6.10;62.15;100648.09;4952880;28;7361;-72
2022/01/06 04:33:45;;;;;;;;;;;;;;;6.10;62.33;100652.34;4954633;28;6853;-72
2022/01/06 04:36:11;;;;;;;;;;;;;;;6.09;62.18;100655.66;4972151;28;7423;-71
2022/01/06 04:38:37;;;;;;;;;;;;;;;6.09;62.20;100653.97;4960153;28;7241;-71
2022/01/06 04:41:04;;;;;;;;;;;;;;;6.08;62.03;100656.41;4958072;28;6803;-71
2022/01/06 04:43:30;;;;;;;;;;;;;;;6.06;62.15;100650.34;4974332;28;6987;-72
2022/01/06 04:45:56;;;;;;;;;;;;;;;6.05;62.16;100653.66;4959047;28;6829;-72
2022/01/06 04:48:21;;;;;;;;;;;;;;;6.03;62.13;100655.22;4960014;28;6860;-72
2022/01/06 04:50:47;;;;;;;;;;;;;;;6.02;62.07;100656.00;4940251;28;7163;-72
2022/01/06 04:53:13;;;;;;;;;;;;;;;6.00;62.29;100660.94;4955375;28;6792;-72
2022/01/06 04:55:38;;;;;;;;;;;;;;;5.98;62.23;100665.03;4958722;28;7137;-72
2022/01/06 04:58:04;;;;;;;;;;;;;;;5.96;61.86;100667.47;4943196;28;7259;-72
2022/01/06 05:00:30;;;;;;;;;;;;;;;5.93;62.04;100677.44;4958443;28;7069;-72
2022/01/06 05:02:55;;;;;;;;;;;;;;;5.93;62.36;100679.97;4943354;28;7308;-72
2022/01/06 05:05:21;;;;;;;;;;;;;;;5.91;62.11;100675.53;4958615;28;7885;-72
2022/01/06 05:07:47;;;;;;;;;;;;;;;5.90;62.30;100679.75;4953257;28;7429;-72
2022/01/06 05:10:12;;;;;;;;;;;;;;;5.88;62.40;100681.28;4957253;28;7609;-72
2022/01/06 05:12:44;;;;;;;;;;;;;;;5.86;62.39;100682.84;4954801;28;6792;-72
2022/01/06 05:15:13;;;;;;;;;;;;;;;5.86;62.40;100687.06;4941996;28;6817;-72
2022/01/06 05:17:41;;;;;;;;;;;;;;;5.85;62.67;100688.72;4939552;28;7082;-72
2022/01/06 05:20:07;;;;;;;;;;;;;;;5.83;62.44;100688.59;4946655;28;6820;-72
2022/01/06 05:22:36;;;;;;;;;;;;;;;5.84;62.18;100689.50;4956998;28;7382;-72
2022/01/06 05:25:02;;;;;;;;;;;;;;;5.82;62.42;100683.41;4956170;28;7165;-72
2022/01/06 05:27:27;;;;;;;;;;;;;;;5.81;62.87;100699.47;4972730;28;7953;-72
2022/01/06 05:29:53;;;;;;;;;;;;;;;5.80;62.60;100690.06;4969158;28;6883;-72
2022/01/06 05:32:19;;;;;;;;;;;;;;;5.80;62.26;100690.94;4942175;28;6922;-72
2022/01/06 05:34:45;;;;;;;;;;;;;;;5.80;62.76;100696.00;4955426;28;6808;-72
2022/01/06 05:37:10;;;;;;;;;;;;;;;5.80;62.63;100687.53;4974287;28;6831;-72
2022/01/06 05:39:36;;;;;;;;;;;;;;;5.79;62.82;100691.72;4956489;28;6894;-72
2022/01/06 05:42:02;;;;;;;;;;;;;;;5.79;62.75;100695.88;4960829;28;7116;-72
2022/01/06 05:44:32;;;;;;;;;;;;;;;5.78;62.82;100704.31;4952854;28;6941;-72
2022/01/06 05:46:58;;;;;;;;;;;;;;;5.77;62.08;100700.88;4950644;28;7278;-72
2022/01/06 05:49:23;;;;;;;;;;;;;;;5.77;62.64;100700.88;4958789;28;7087;-72
2022/01/06 05:51:49;;;;;;;;;;;;;;;5.77;62.43;100702.53;4958800;28;6912;-72
2022/01/06 05:54:14;;;;;;;;;;;;;;;5.77;62.76;100705.97;4953711;28;6946;-72
2022/01/06 05:56:40;;;;;;;;;;;;;;;5.76;62.76;100711.84;4958269;28;6820;-72
2022/01/06 05:59:06;;;;;;;;;;;;;;;5.77;62.95;100717.81;4961335;28;6909;-71
2022/01/06 06:01:32;;;;;;;;;;;;;;;5.77;62.86;100718.69;4958182;28;6910;-71
2022/01/06 06:03:57;;;;;;;;;;;;;;;5.78;62.73;100719.56;4961283;28;6934;-71
2022/01/06 06:06:23;;;;;;;;;;;;;;;5.77;62.90;100715.25;4958214;28;6863;-71
2022/01/06 06:08:49;;;;;;;;;;;;;;;5.76;62.89;100721.13;4962178;28;7346;-71
2022/01/06 06:11:14;;;;;;;;;;;;;;;5.75;62.87;100725.34;4956485;28;6808;-71
2022/01/06 06:13:40;;;;;;;;;;;;;;;5.76;62.65;100736.38;4945513;28;7331;-71
2022/01/06 06:16:06;;;;;;;;;;;;;;;5.74;62.54;100736.25;4962542;28;6867;-71
2022/01/06 06:18:31;;;;;;;;;;;;;;;5.72;62.49;100734.41;4959960;28;7337;-71
2022/01/06 06:20:57;;;;;;;;;;;;;;;5.72;62.54;100742.03;4958368;28;6772;-72
2022/01/06 06:23:23;;;;;;;;;;;;;;;5.70;62.89;100740.25;4960027;28;7315;-72
2022/01/06 06:25:48;;;;;;;;;;;;;;;5.71;62.84;100748.75;4959045;28;6839;-71
2022/01/06 06:28:14;;;;;;;;;;;;;;;5.70;62.74;100737.72;4961165;28;6851;-71
2022/01/06 06:30:40;;;;;;;;;;;;;;;5.70;62.74;100741.91;4939890;28;6919;-72
2022/01/06 06:33:05;;;;;;;;;;;;;;;5.69;62.63;100743.56;4956215;28;6780;-72
2022/01/06 06:35:31;;;;;;;;;;;;;;;5.68;62.88;100744.34;4955020;28;6979;-72
2022/01/06 06:37:57;;;;;;;;;;;;;;;5.69;62.86;100747.78;4957008;28;6856;-72
2022/01/06 06:40:23;;;;;;;;;;;;;;;5.69;62.88;100752.84;4957679;28;6781;-72
2022/01/06 06:42:51;;;;;;;;;;;;;;;5.69;62.79;100755.41;4959455;28;6915;-72
2022/01/06 06:45:17;;;;;;;;;;;;;;;5.66;62.88;100756.06;4960628;28;6884;-72
2022/01/06 06:47:43;;;;;;;;;;;;;;;5.65;62.45;100761.91;4950062;28;6887;-71
2022/01/06 06:50:09;;;;;;;;;;;;;;;5.65;62.90;100766.09;4960146;28;6883;-72
2022/01/06 06:52:34;;;;;;;;;;;;;;;5.64;62.75;100764.34;4956941;28;6796;-72
2022/01/06 06:55:00;;;;;;;;;;;;;;;5.62;62.92;100771.88;4959614;28;7372;-72
2022/01/06 06:57:26;;;;;;;;;;;;;;;5.61;62.94;100777.72;4942214;28;6951;-72
2022/01/06 06:59:52;;;;;;;;;;;;;;;5.61;62.94;100780.28;4959255;28;7095;-72
2022/01/06 07:02:18;;;;;;;;;;;;;;;5.61;62.57;100782.81;4959473;28;6938;-71
2022/01/06 07:04:44;;;;;;;;;;;;;;;5.61;62.55;100787.00;4942360;28;6900;-71
2022/01/06 07:07:10;;;;;;;;;;;;;;;5.58;62.61;100792.75;4956783;28;6907;-71
2022/01/06 07:09:36;;;;;;;;;;;;;;;5.56;62.60;100795.19;4955370;28;7141;-71
2022/01/06 07:12:01;;;;;;;;;;;;;;;5.56;62.76;100799.38;4958277;28;7196;-71
2022/01/06 07:14:27;;;;;;;;;;;;;;;5.55;62.36;100805.25;4955486;28;7166;-71
2022/01/06 07:16:53;;;;;;;;;;;;;;;5.53;62.61;100805.13;4959215;28;7319;-71
2022/01/06 07:19:18;;;;;;;;;;;;;;;5.53;62.94;100806.78;4957803;28;7371;-71
2022/01/06 07:21:44;;;;;;;;;;;;;;;5.54;62.99;100816.19;4955886;28;6907;-71
2022/01/06 07:24:10;;;;;;;;;;;;;;;5.52;62.82;100812.66;4956803;28;6836;-71
2022/01/06 07:26:35;;;;;;;;;;;;;;;5.52;62.97;100816.06;4956524;28;8067;-71
2022/01/06 07:29:01;;;;;;;;;;;;;;;5.52;63.17;100817.75;4952135;28;6995;-71
2022/01/06 07:31:27;;;;;;;;;;;;;;;5.53;63.09;100822.03;4957261;28;6891;-71
2022/01/06 07:33:53;;;;;;;;;;;;;;;5.53;62.94;100824.59;4959463;28;6792;-71
2022/01/06 07:36:18;;;;;;;;;;;;;;;5.53;63.18;100825.47;4955839;28;7911;-71
2022/01/06 07:38:44;;;;;;;;;;;;;;;5.53;62.84;100834.75;4955213;28;6859;-71
2022/01/06 07:41:09;;;;;;;;;;;;;;;5.54;63.18;100836.53;4943883;28;6795;-71
2022/01/06 07:43:35;;;;;;;;;;;;;;;5.55;63.08;100838.28;4955953;28;7475;-71
2022/01/06 07:46:01;;;;;;;;;;;;;;;5.57;62.89;100839.28;4955705;28;6871;-71
2022/01/06 07:48:36;;;;;;;;;;;;;;;5.60;63.08;100841.19;4957472;28;6788;-72
2022/01/06 07:51:03;;;;;;;;;;;;;;;5.62;62.79;100843.09;4959688;28;6836;-72
2022/01/06 07:53:29;;;;;;;;;;;;;;;5.63;62.81;100852.47;4956936;28;6806;-72
2022/01/06 07:55:54;;;;;;;;;;;;;;;5.65;63.26;100850.94;4969404;28;6881;-72
2022/01/06 07:58:20;;;;;;;;;;;;;;;5.68;63.18;100856.25;4957080;28;6895;-72
2022/01/06 08:00:46;;;;;;;;;;;;;;;5.73;63.75;100860.81;4956202;28;6914;-72
2022/01/06 08:03:12;;;;;;;;;;;;;;;5.79;63.42;100871.41;4959286;28;6780;-72
2022/01/06 08:05:37;;;;;;;;;;;;;;;5.86;63.94;100866.03;4957570;28;6784;-72
2022/01/06 08:08:03;;;;;;;;;;;;;;;5.96;63.73;100876.09;4958132;28;6870;-72
2022/01/06 08:10:29;;;;;;;;;;;;;;;6.04;63.65;100870.75;4951802;28;6776;-72
2022/01/06 08:12:54;;;;;;;;;;;;;;;6.12;64.04;100872.19;4954911;28;6768;-72
2022/01/06 08:15:20;;;;;;;;;;;;;;;6.22;64.43;100874.63;4956509;28;6788;-72
2022/01/06 08:17:46;;;;;;;;;;;;;;;6.30;64.15;100876.88;4953526;28;7145;-72
2022/01/06 08:20:11;;;;;;;;;;;;;;;6.37;64.08;100877.41;4956623;28;7197;-72
2022/01/06 08:22:37;;;;;;;;;;;;;;;6.45;63.66;100880.50;4959594;28;6796;-72
2022/01/06 08:25:08;;;;;;;;;;;;;;;6.52;64.05;100881.84;4957982;28;6785;-72
2022/01/06 08:27:33;;;;;;;;;;;;;;;6.58;63.89;100889.06;4956864;28;7841;-72
2022/01/06 08:29:59;;;;;;;;;;;;;;;6.64;63.73;100898.00;4956713;28;6880;-72
2022/01/06 08:32:25;;;;;;;;;;;;;;;6.69;63.59;100894.91;4954790;28;7592;-72
2022/01/06 08:34:50;;;;;;;;;;;;;;;6.74;63.90;100889.34;4958112;28;6891;-72
2022/01/06 08:37:17;;;;;;;;;;;;;;;6.78;63.86;100887.91;4942579;28;6946;-72
2022/01/06 08:39:42;;;;;;;;;;;;;;;6.83;63.40;100884.03;4957208;28;6784;-72
2022/01/06 08:42:08;;;;;;;;;;;;;;;6.89;64.13;100892.09;4958710;28;7103;-72
2022/01/06 08:44:35;;;;;;;;;;;;;;;6.93;63.64;100891.56;4971132;28;6940;-72
2022/01/06 08:47:01;;;;;;;;;;;;;;;6.98;64.15;100884.25;4949600;28;6908;-72
2022/01/06 08:49:29;;;;;;;;;;;;;;;7.03;64.15;100887.09;4956796;28;6831;-72
2022/01/06 08:51:55;;;;;;;;;;;;;;;7.07;63.91;100891.63;4969908;28;6856;-72
2022/01/06 08:54:20;;;;;;;;;;;;;;;7.11;63.96;100895.28;4958670;28;6984;-72
2022/01/06 08:56:46;;;;;;;;;;;;;;;7.13;63.49;100892.06;4956630;28;6787;-72
2022/01/06 08:59:12;;;;;;;;;;;;;;;7.15;63.14;100890.50;4974189;28;6963;-72
2022/01/06 09:01:37;;;;;;;;;;;;;;;7.19;63.78;100894.16;4959251;28;6799;-72
2022/01/06 09:04:04;;;;;;;;;;;;;;;7.19;62.87;100891.59;4959038;28;6828;-72
2022/01/06 09:06:30;;;;;;;;;;;;;;;7.20;63.43;100896.81;4957493;28;6788;-72
2022/01/06 09:08:55;;;;;;;;;;;;;;;7.20;63.09;100904.47;4957556;28;6788;-72
2022/01/06 09:11:21;;;;;;;;;;;;;;;7.20;62.74;100895.94;4941023;28;6964;-72
2022/01/06 09:13:47;;;;;;;;;;;;;;;7.19;62.70;100896.72;4959103;28;7333;-72
2022/01/06 09:16:13;;;;;;;;;;;;;;;7.16;62.62;100896.50;4955532;28;7205;-72
2022/01/06 09:18:41;;;;;;;;;;;;;;;7.16;62.37;100901.59;4958818;28;7012;-72
2022/01/06 09:21:08;;;;;;;;;;;;;;;7.14;62.74;100905.69;4954379;28;6974;-72
2022/01/06 09:23:36;;;;;;;;;;;;;;;7.13;62.82;100894.63;4956576;28;6899;-71
2022/01/06 09:26:02;;;;;;;;;;;;;;;7.14;62.45;100900.59;4942765;28;8924;-72
2022/01/06 09:28:28;;;;;;;;;;;;;;;7.14;63.19;100900.59;4962248;28;6858;-72
2022/01/06 09:30:55;;;;;;;;;;;;;;;7.16;63.34;100904.16;4960586;28;7469;-72
2022/01/06 09:33:23;;;;;;;;;;;;;;;7.18;63.37;100903.47;4944162;28;7113;-72
2022/01/06 09:35:54;;;;;;;;;;;;;;;7.22;62.46;100914.75;4961476;28;7199;-72
2022/01/06 09:38:21;;;;;;;;;;;;;;;7.24;62.49;100913.19;4959637;28;7076;-72
2022/01/06 09:40:46;;;;;;;;;;;;;;;7.30;63.19;100917.88;4959833;28;7039;-72
2022/01/06 09:43:12;;;;;;;;;;;;;;;7.32;62.71;100917.16;4961795;28;6800;-72
2022/01/06 09:45:40;;;;;;;;;;;;;;;7.38;63.28;100921.81;4957437;28;6824;-72
2022/01/06 09:48:08;;;;;;;;;;;;;;;7.42;63.37;100930.56;4958315;28;6792;-72
2022/01/06 09:50:36;;;;;;;;;;;;;;;7.46;63.33;100922.34;4956943;28;7826;-72
2022/01/06 09:53:02;;;;;;;;;;;;;;;7.50;62.79;100922.66;4942446;28;7052;-72
2022/01/06 09:55:28;;;;;;;;;;;;;;;7.56;62.54;100921.31;4958263;28;7027;-72
2022/01/06 09:57:59;;;;;;;;;;;;;;;7.61;63.61;100925.94;4957764;28;6784;-72
2022/01/06 10:00:28;;;;;;;;;;;;;;;7.67;63.05;100929.69;4961628;28;7043;-72
2022/01/06 10:03:01;;;;;;;;;;;;;;;7.72;62.43;100929.22;4958605;28;6819;-72
2022/01/06 10:05:41;;;;;;;;;;;;;;;7.77;63.11;100932.09;4958037;28;7235;-72
2022/01/06 10:08:09;;;;;;;;;;;;;;;7.83;62.31;100929.97;4961407;28;6812;-72
2022/01/06 10:10:35;;;;;;;;;;;;;;;7.89;63.50;100932.91;4960084;28;6931;-71
2022/01/06 10:13:06;;;;;;;;;;;;;;;7.98;63.63;100931.78;4941571;28;6929;-72
2022/01/06 10:15:34;;;;;;;;;;;;;;;8.09;64.06;100924.84;4956405;28;6871;-72
2022/01/06 10:18:13;;;;;;;;;;;;;;;8.26;62.79;100928.50;4942644;28;7269;-72
2022/01/06 10:20:39;;;;;;;;;;;;;;;8.42;62.51;100927.81;4963676;28;7001;-72
2022/01/06 10:23:15;;;;;;;;;;;;;;;8.62;63.02;100929.16;4957567;28;7179;-72
2022/01/06 10:25:48;;;;;;;;;;;;;;;8.84;62.71;100930.53;4958944;28;6808;-72
2022/01/06 10:28:21;;;;;;;;;;;;;;;9.05;62.15;100930.09;4957506;28;7259;-72
2022/01/06 10:30:49;;;;;;;;;;;;;;;9.21;62.83;100929.38;4959352;28;7916;-72
2022/01/06 10:33:23;;;;;;;;;;;;;;;9.37;61.87;100932.09;4941144;28;7841;-72
2022/01/06 10:35:49;;;;;;;;;;;;;;;9.53;62.31;100926.25;4957821;28;6887;-72
2022/01/06 10:38:27;;;;;;;;;;;;;;;9.73;61.70;100929.13;4961820;28;7046;-72
2022/01/06 10:40:52;;;;;;;;;;;;;;;9.98;61.13;100931.44;4960755;28;6820;-72
2022/01/06 10:43:19;;;;;;;;;;;;;;;10.30;60.64;100926.44;4959069;28;6995;-72
2022/01/06 10:45:45;;;;;;;;;;;;;;;10.62;59.92;100926.56;4957566;28;7010;-72
2022/01/06 10:48:11;;;;;;;;;;;;;;;10.92;58.99;100918.78;4955345;28;6798;-72
2022/01/06 10:50:38;;;;;;;;;;;;;;;11.16;58.54;100915.81;4961689;28;6864;-71
2022/01/06 10:53:13;;;;;;;;;;;;;;;11.37;58.13;100916.06;4956462;28;7194;-71
2022/01/06 10:55:43;;;;;;;;;;;;;;;11.53;58.48;100916.06;4958671;28;7283;-71
2022/01/06 10:58:43;;;;;;;;;;;;;;;11.70;57.28;100913.50;4959847;28;7208;-71
2022/01/06 11:01:16;;;;;;;;;;;;;;;11.87;56.94;100911.78;4948520;28;6832;-71
2022/01/06 11:03:42;;;;;;;;;;;;;;;12.11;56.87;100902.72;4957896;28;7062;-71
2022/01/06 11:06:10;;;;;;;;;;;;;;;12.38;55.80;100910.88;4957261;28;6875;-71
2022/01/06 11:08:41;;;;;;;;;;;;;;;12.63;55.31;100910.38;4960157;28;7498;-71
2022/01/06 11:13:41;;;;;;;;;;;;;;;12.43;54.86;100908.53;4945873;28;7022;-71
2022/01/06 11:16:09;;;;;;;;;;;;;;;12.01;54.76;100902.22;4955101;28;7007;-72
2022/01/06 11:18:50;;;;;;;;;;;;;;;11.53;55.24;100908.38;4954766;28;7162;-72
2022/01/06 11:21:20;;;;;;;;;;;;;;;11.05;55.21;100904.97;4960010;28;7122;-72
2022/01/06 11:23:46;;;;;;;;;;;;;;;10.67;55.81;100915.75;4958073;28;6979;-72
2022/01/06 11:26:18;;;;;;;;;;;;;;;10.42;56.34;100913.50;4959648;28;7011;-72
2022/01/06 11:29:00;;;;;;;;;;;;;;;10.39;57.49;100921.84;4954027;28;8353;-72
2022/01/06 11:31:40;;;;;;;;;;;;;;;10.74;57.35;100913.53;4958445;28;7012;-72
2022/01/06 11:34:17;;;;;;;;;;;;;;;11.00;57.07;100911.50;4953231;28;6979;-72
2022/01/06 11:36:45;;;;;;;;;;;;;;;11.23;56.63;100908.50;4959156;28;7173;-72
2022/01/06 11:39:29;;;;;;;;;;;;;;;11.49;56.56;100910.69;4944063;28;6884;-72
2022/01/06 11:41:59;;;;;;;;;;;;;;;11.68;56.13;100909.94;4956136;28;6808;-72
2022/01/06 11:44:35;;;;;;;;;;;;;;;11.65;55.26;100909.78;4942912;28;7941;-72
2022/01/06 11:47:03;;;;;;;;;;;;;;;11.61;55.10;100915.59;4940328;28;7497;-72
2022/01/06 11:49:40;;;;;;;;;;;;;;;11.52;55.53;100913.41;4955959;28;6887;-72
2022/01/06 11:52:11;;;;;;;;;;;;;;;11.37;54.90;100918.63;4940297;28;6829;-72
2022/01/06 11:54:54;;;;;;;;;;;;;;;11.20;55.42;100916.06;4955234;28;6979;-72
2022/01/06 11:57:40;;;;;;;;;;;;;;;11.14;55.32;100913.16;4957267;28;7153;-72
2022/01/06 12:00:25;;;;;;;;;;;;;;;11.07;55.24;100913.59;4955471;28;6996;-72
2022/01/06 12:03:03;;;;;;;;;;;;;;;11.12;55.37;100912.19;4956425;28;6900;-72
2022/01/06 12:05:53;;;;;;;;;;;;;;;11.20;55.44;100908.38;4944704;28;7239;-72
2022/01/06 12:08:33;;;;;;;;;;;;;;;11.23;55.26;100905.94;4956483;28;6962;-72
2022/01/06 12:10:59;;;;;;;;;;;;;;;11.57;55.29;100913.66;4932215;28;6992;-72
2022/01/06 12:13:24;;;;;;;;;;;;;;;12.04;54.43;100904.97;4956590;28;6860;-72
2022/01/06 12:15:57;;;;;;;;;;;;;;;12.29;53.39;100907.84;4953040;28;8288;-72
2022/01/06 12:18:27;;;;;;;;;;;;;;;12.20;53.65;100903.16;4953687;28;6967;-72
2022/01/06 12:20:57;;;;;;;;;;;;;;;11.98;53.27;100906.31;4954361;28;6836;-72
2022/01/06 12:23:24;;;;;;;;;;;;;;;11.72;53.71;100909.31;4957182;28;7302;-72
2022/01/06 12:26:03;;;;;;;;;;;;;;;11.47;53.56;100912.31;4957639;28;7167;-72
2022/01/06 12:28:35;;;;;;;;;;;;;;;11.28;54.35;100910.44;4940046;28;7178;-72
2022/01/06 12:31:05;;;;;;;;;;;;;;;11.17;54.68;100915.00;4941861;28;7179;-72
2022/01/06 12:33:46;;;;;;;;;;;;;;;11.09;54.99;100912.91;4955021;28;7655;-72
2022/01/06 12:36:18;;;;;;;;;;;;;;;10.96;54.04;100908.78;4957953;28;6979;-72
2022/01/06 12:38:44;;;;;;;;;;;;;;;10.78;54.39;100911.22;4955244;28;6903;-72
2022/01/06 12:41:11;;;;;;;;;;;;;;;10.61;54.13;100915.41;4957994;28;7068;-72
2022/01/06 12:43:40;;;;;;;;;;;;;;;10.44;54.65;100917.03;4956048;28;7395;-71
2022/01/06 12:46:16;;;;;;;;;;;;;;;10.29;55.00;100917.00;4941986;28;8088;-71
2022/01/06 12:49:01;;;;;;;;;;;;;;;10.19;55.45;100909.56;4956504;28;6963;-72
2022/01/06 12:51:30;;;;;;;;;;;;;;;10.10;55.00;100913.38;4957602;28;6915;-72
2022/01/06 12:54:09;;;;;;;;;;;;;;;10.04;55.23;100910.44;4959226;28;6938;-72
2022/01/06 12:56:37;;;;;;;;;;;;;;;9.95;55.38;100894.56;4959585;28;6828;-72
2022/01/06 12:59:24;;;;;;;;;;;;;;;9.90;55.81;100893.41;4961782;28;6803;-72
2022/01/06 13:01:57;;;;;;;;;;;;;;;9.84;56.53;100887.13;4958813;28;6808;-72
2022/01/06 13:04:27;;;;;;;;;;;;;;;9.82;56.50;100878.47;4931814;28;7069;-72
2022/01/06 13:06:57;;;;;;;;;;;;;;;9.85;56.29;100883.78;4956153;28;6827;-72
2022/01/06 13:09:26;;;;;;;;;;;;;;;9.86;55.91;100875.31;4959988;28;7260;-71
2022/01/06 13:11:54;;;;;;;;;;;;;;;9.88;55.67;100883.06;4946991;28;6872;-71
2022/01/06 13:14:47;;;;;;;;;;;;;;;9.88;56.37;100882.19;4942926;28;7084;-71